createdAt,value
2022-09-28T00:01:17.063Z,98933.00
2022-09-28T00:03:45.461Z,98964.22
2022-09-28T00:06:14.877Z,98969.78
2022-09-28T00:08:42.227Z,98949.69
2022-09-28T00:11:13.083Z,98949.78
2022-09-28T00:13:41.701Z,98950.75
2022-09-28T00:16:16.933Z,98921.50
2022-09-28T00:18:46.437Z,98950.28
2022-09-28T00:21:19.397Z,98961.59
2022-09-28T00:24:05.126Z,98951.47
2022-09-28T00:26:34.264Z,98938.56
2022-09-28T00:29:02.955Z,98935.13
2022-09-28T00:31:32.947Z,98927.06
2022-09-28T00:34:01.795Z,98921.31
2022-09-28T00:36:31.157Z,98916.28
2022-09-28T00:38:59.337Z,98926.53
2022-09-28T00:41:28.509Z,98920.03
2022-09-28T00:44:26.707Z,98919.09
2022-09-28T00:47:37.509Z,98921.69
2022-09-28T00:50:22.130Z,98916.91
2022-09-28T00:53:28.093Z,98906.53
2022-09-28T00:55:59.688Z,98892.31
2022-09-28T00:58:32.717Z,98885.91
2022-09-28T01:01:00.430Z,98878.50
2022-09-28T01:03:29.021Z,98891.59
2022-09-28T01:05:59.316Z,98878.41
2022-09-28T01:08:29.572Z,98888.16
2022-09-28T01:10:59.547Z,98883.97
2022-09-28T01:13:28.691Z,98869.56
2022-09-28T01:16:19.598Z,98875.25
2022-09-28T01:18:59.086Z,98876.72
2022-09-28T01:21:29.234Z,98863.09
2022-09-28T01:24:05.054Z,98865.44
2022-09-28T01:27:19.728Z,98858.38
2022-09-28T01:30:10.744Z,98859.44
2022-09-28T01:32:56.355Z,98841.97
2022-09-28T01:35:31.555Z,98831.09
2022-09-28T01:38:14.790Z,98822.91
2022-09-28T01:40:42.566Z,98843.66
2022-09-28T01:43:15.874Z,98843.41
2022-09-28T01:45:51.474Z,98835.69
2022-09-28T01:48:32.576Z,98846.25
2022-09-28T01:51:04.901Z,98838.59
2022-09-28T01:53:44.985Z,98834.00
2022-09-28T01:56:26.349Z,98832.97
2022-09-28T01:58:59.940Z,98826.59
2022-09-28T02:01:36.458Z,98821.38
2022-09-28T02:04:16.193Z,98804.47
2022-09-28T02:06:54.406Z,98807.78
2022-09-28T02:09:33.576Z,98798.66
2022-09-28T02:12:08.030Z,98790.47
2022-09-28T02:14:38.937Z,98789.94
2022-09-28T02:17:06.606Z,98803.53
2022-09-28T02:19:35.298Z,98778.72
2022-09-28T02:22:23.596Z,98789.69
2022-09-28T02:25:07.894Z,98783.78
2022-09-28T02:27:56.089Z,98778.28
2022-09-28T02:30:23.931Z,98775.56
2022-09-28T02:32:56.295Z,98744.88
2022-09-28T02:35:24.104Z,98777.25
2022-09-28T02:37:51.499Z,98770.81
2022-09-28T02:40:46.122Z,98773.66
2022-09-28T02:43:24.046Z,98770.97
2022-09-28T02:45:57.411Z,98756.50
2022-09-28T02:48:55.809Z,98764.13
2022-09-28T02:51:54.292Z,98750.94
2022-09-28T02:54:40.269Z,98754.94
2022-09-28T02:57:13.419Z,98752.03
2022-09-28T02:59:47.046Z,98745.31
2022-09-28T03:02:53.153Z,98746.25
2022-09-28T03:05:26.146Z,98756.81
2022-09-28T03:07:58.081Z,98741.88
2022-09-28T03:10:32.371Z,98745.13
2022-09-28T03:13:00.544Z,98750.16
2022-09-28T03:15:33.534Z,98720.50
2022-09-28T03:18:01.487Z,98738.59
2022-09-28T03:20:31.333Z,98739.25
2022-09-28T03:23:22.759Z,98735.31
2022-09-28T03:25:45.930Z,98736.34
2022-09-28T03:28:12.943Z,98735.91
2022-09-28T03:30:43.273Z,98725.16
2022-09-28T03:33:10.653Z,98715.41
2022-09-28T03:35:38.876Z,98718.94
2022-09-28T03:38:05.977Z,98731.97
2022-09-28T03:40:43.449Z,98724.19
2022-09-28T03:43:10.902Z,98706.22
2022-09-28T03:45:38.327Z,98704.84
2022-09-28T03:48:05.628Z,98670.34
2022-09-28T03:50:35.475Z,98697.84
2022-09-28T03:53:04.608Z,98687.91
2022-09-28T03:55:31.851Z,98655.69
2022-09-28T03:57:59.081Z,98681.56
2022-09-28T04:00:27.728Z,98679.97
2022-09-28T04:02:55.875Z,98694.81
2022-09-28T04:05:23.056Z,98676.94
2022-09-28T04:07:50.613Z,98667.84
2022-09-28T04:10:18.013Z,98648.81
2022-09-28T04:12:46.089Z,98665.34
2022-09-28T04:15:15.189Z,98677.56
2022-09-28T04:17:43.277Z,98678.41
2022-09-28T04:20:26.668Z,98671.38
2022-09-28T04:23:01.631Z,98651.22
2022-09-28T04:25:29.521Z,98665.03
2022-09-28T04:28:15.665Z,98646.00
2022-09-28T04:30:43.340Z,98669.72
2022-09-28T04:33:11.401Z,98670.56
2022-09-28T04:35:38.431Z,98648.31
2022-09-28T04:38:05.735Z,98652.38
2022-09-28T04:40:33.274Z,98664.38
2022-09-28T04:43:00.618Z,98636.59
2022-09-28T04:45:28.664Z,98637.19
2022-09-28T04:48:02.347Z,98641.66
2022-09-28T04:50:46.802Z,98658.91
2022-09-28T04:53:18.452Z,98629.13
2022-09-28T04:55:45.746Z,98625.34
2022-09-28T04:58:13.119Z,98670.81
2022-09-28T05:00:44.911Z,98623.06
2022-09-28T05:03:28.925Z,98619.91
2022-09-28T05:06:15.801Z,98625.56
2022-09-28T05:08:48.081Z,98650.81
2022-09-28T05:11:16.654Z,98631.38
2022-09-28T05:13:45.763Z,98618.34
2022-09-28T05:16:19.605Z,98624.09
2022-09-28T05:19:07.321Z,98634.25
2022-09-28T05:21:34.663Z,98631.72
2022-09-28T05:24:07.736Z,98610.47
2022-09-28T05:26:37.788Z,98620.28
2022-09-28T05:29:07.869Z,98632.34
2022-09-28T05:31:54.142Z,98640.94
2022-09-28T05:34:44.146Z,98637.91
2022-09-28T05:37:17.367Z,98614.34
2022-09-28T05:39:49.301Z,98598.78
2022-09-28T05:42:16.610Z,98616.31
2022-09-28T05:44:43.863Z,98625.06
2022-09-28T05:47:12.822Z,98623.34
2022-09-28T05:49:42.919Z,98602.00
2022-09-28T05:52:12.180Z,98609.84
2022-09-28T05:54:39.806Z,98610.09
2022-09-28T05:57:07.573Z,98610.22
2022-09-28T05:59:37.919Z,98606.81
2022-09-28T06:02:06.479Z,98609.44
2022-09-28T06:04:33.964Z,98600.84
2022-09-28T06:07:01.358Z,98622.88
2022-09-28T06:09:28.619Z,98620.16
2022-09-28T06:12:22.353Z,98594.00
2022-09-28T06:14:55.409Z,98592.72
2022-09-28T06:17:23.694Z,98583.03
2022-09-28T06:20:12.162Z,98582.06
2022-09-28T06:22:57.395Z,98603.91
2022-09-28T06:25:26.463Z,98580.31
2022-09-28T06:27:58.487Z,98566.56
2022-09-28T06:30:27.819Z,98599.63
2022-09-28T06:32:57.275Z,98580.09
2022-09-28T06:35:26.471Z,98564.84
2022-09-28T06:37:53.740Z,98608.72
2022-09-28T06:40:22.087Z,98573.31
2022-09-28T06:43:03.564Z,98582.78
2022-09-28T06:45:54.855Z,98589.78
2022-09-28T06:48:45.568Z,98599.00
2022-09-28T06:51:17.731Z,98595.31
2022-09-28T06:53:57.730Z,98581.81
2022-09-28T06:56:39.189Z,98580.03
2022-09-28T06:59:07.862Z,98590.75
2022-09-28T07:01:36.592Z,98584.53
2022-09-28T07:04:08.394Z,98598.25
2022-09-28T07:06:54.573Z,98592.09
2022-09-28T07:09:49.333Z,98591.38
2022-09-28T07:12:36.764Z,98575.88
2022-09-28T07:15:18.342Z,98584.94
2022-09-28T07:18:00.687Z,98605.31
2022-09-28T07:20:47.232Z,98557.78
2022-09-28T07:23:20.060Z,98564.44
2022-09-28T07:26:09.078Z,98576.38
2022-09-28T07:28:56.118Z,98567.09
2022-09-28T07:31:34.021Z,98577.19
2022-09-28T07:34:20.615Z,98589.97
2022-09-28T07:36:59.543Z,98596.25
2022-09-28T07:39:26.964Z,98581.63
2022-09-28T07:41:59.669Z,98566.38
2022-09-28T07:44:33.866Z,98566.38
2022-09-28T07:47:02.864Z,98585.66
2022-09-28T07:49:52.725Z,98542.44
2022-09-28T07:52:47.928Z,98579.47
2022-09-28T07:55:23.979Z,98577.56
2022-09-28T07:58:06.293Z,98549.69
2022-09-28T08:00:51.434Z,98544.69
2022-09-28T08:03:22.086Z,98558.03
2022-09-28T08:05:50.145Z,98549.59
2022-09-28T08:08:18.900Z,98540.66
2022-09-28T08:10:47.608Z,98542.69
2022-09-28T08:13:33.359Z,98564.09
2022-09-28T08:16:15.269Z,98567.34
2022-09-28T08:19:06.271Z,98555.78
2022-09-28T08:21:45.932Z,98554.69
2022-09-28T08:24:15.513Z,98539.69
2022-09-28T08:26:44.370Z,98523.97
2022-09-28T08:29:15.536Z,98537.06
2022-09-28T08:31:52.089Z,98538.59
2022-09-28T08:34:41.474Z,98542.41
2022-09-28T08:37:37.974Z,98552.78
2022-09-28T08:40:26.331Z,98555.72
2022-09-28T08:43:21.677Z,98574.69
2022-09-28T08:46:23.808Z,98531.56
2022-09-28T08:49:30.785Z,98555.13
2022-09-28T08:52:32.795Z,98512.22
2022-09-28T08:55:33.713Z,98545.06
2022-09-28T08:58:15.064Z,98506.94
2022-09-28T09:00:51.995Z,98545.44
2022-09-28T09:03:32.351Z,98529.53
2022-09-28T09:06:34.673Z,98540.41
2022-09-28T09:10:06.128Z,98539.47
2022-09-28T09:12:48.995Z,98548.53
2022-09-28T09:16:03.359Z,98555.00
2022-09-28T09:19:35.991Z,98562.19
2022-09-28T09:22:39.237Z,98551.06
2022-09-28T09:25:26.411Z,98552.13
2022-09-28T09:28:34.964Z,98557.19
2022-09-28T09:31:09.357Z,98552.00
2022-09-28T09:33:59.428Z,98538.38
2022-09-28T09:37:02.953Z,98570.75
2022-09-28T09:40:17.065Z,98568.72
2022-09-28T09:43:14.093Z,98539.81
2022-09-28T09:45:56.208Z,98574.22
2022-09-28T09:49:14.616Z,98570.75
2022-09-28T09:52:07.215Z,98566.09
2022-09-28T09:55:13.915Z,98562.03
2022-09-28T09:57:56.076Z,98539.09
2022-09-28T10:00:48.519Z,98560.66
2022-09-28T10:03:29.470Z,98566.06
2022-09-28T10:06:12.810Z,98564.44
2022-09-28T10:08:57.967Z,98554.34
2022-09-28T10:11:46.310Z,98560.75
2022-09-28T10:14:21.707Z,98569.91
2022-09-28T10:16:59.382Z,98548.38
2022-09-28T10:19:50.033Z,98567.13
2022-09-28T10:22:35.957Z,98556.88
2022-09-28T10:25:24.313Z,98544.84
2022-09-28T10:28:00.193Z,98543.88
2022-09-28T10:30:29.413Z,98555.19
2022-09-28T10:32:59.652Z,98589.63
2022-09-28T10:35:43.892Z,98566.91
2022-09-28T10:38:19.028Z,98543.56
2022-09-28T10:41:00.054Z,98568.84
2022-09-28T10:44:09.198Z,98551.56
2022-09-28T10:47:01.461Z,98579.44
2022-09-28T10:49:44.390Z,98558.91
2022-09-28T10:52:40.090Z,98559.25
2022-09-28T10:55:29.197Z,98566.06
2022-09-28T10:57:57.545Z,98556.63
2022-09-28T11:00:37.531Z,98556.34
2022-09-28T11:03:27.380Z,98536.63
2022-09-28T11:06:16.208Z,98545.78
2022-09-28T11:08:44.654Z,98549.47
2022-09-28T11:11:21.774Z,98532.66
2022-09-28T11:14:01.589Z,98553.19
2022-09-28T11:16:35.040Z,98560.56
2022-09-28T11:19:25.439Z,98565.91
2022-09-28T11:21:55.150Z,98561.88
2022-09-28T11:24:32.544Z,98541.75
2022-09-28T11:27:02.966Z,98555.25
2022-09-28T11:29:43.647Z,98566.31
2022-09-28T11:32:47.384Z,98557.16
2022-09-28T11:35:33.204Z,98570.25
2022-09-28T11:38:22.571Z,98577.41
2022-09-28T11:41:31.907Z,98565.00
2022-09-28T11:44:30.978Z,98569.66
2022-09-28T11:47:28.864Z,98572.16
2022-09-28T11:50:25.119Z,98576.91
2022-09-28T11:53:11.303Z,98578.56
2022-09-28T11:55:45.024Z,98578.72
2022-09-28T11:58:22.961Z,98573.03
2022-09-28T12:01:02.360Z,98563.75
2022-09-28T12:03:51.322Z,98556.06
2022-09-28T12:06:24.200Z,98563.00
2022-09-28T12:09:08.296Z,98563.00
2022-09-28T12:12:02.835Z,98581.09
2022-09-28T12:14:45.949Z,98563.59
2022-09-28T12:17:33.272Z,98582.19
2022-09-28T12:20:17.245Z,98597.66
2022-09-28T12:23:00.799Z,98571.09
2022-09-28T12:25:33.865Z,98573.03
2022-09-28T12:28:07.864Z,98597.78
2022-09-28T12:30:41.012Z,98607.91
2022-09-28T12:33:22.333Z,98572.53
2022-09-28T12:36:17.461Z,98576.94
2022-09-28T12:39:19.113Z,98554.19
2022-09-28T12:42:28.920Z,98589.69
2022-09-28T12:45:21.311Z,98588.00
2022-09-28T12:48:16.926Z,98572.06
2022-09-28T12:51:32.307Z,98588.47
2022-09-28T12:54:08.535Z,98567.03
2022-09-28T12:57:05.018Z,98581.28
2022-09-28T12:59:40.128Z,98561.66
2022-09-28T13:02:56.340Z,98583.56
2022-09-28T13:05:48.053Z,98586.53
2022-09-28T13:08:39.075Z,98590.47
2022-09-28T13:11:33.379Z,98591.91
2022-09-28T13:14:50.490Z,98611.69
2022-09-28T13:17:41.147Z,98592.34
2022-09-28T13:20:28.071Z,98589.38
2022-09-28T13:23:24.088Z,98581.66
2022-09-28T13:26:10.004Z,98579.91
2022-09-28T13:28:39.480Z,98548.94
2022-09-28T13:31:08.086Z,98586.91
2022-09-28T13:33:45.305Z,98580.34
2022-09-28T13:36:30.754Z,98586.59
2022-09-28T13:39:00.475Z,98564.53
2022-09-28T13:41:40.673Z,98552.13
2022-09-28T13:44:10.992Z,98571.06
2022-09-28T13:47:10.889Z,98574.03
2022-09-28T13:49:58.797Z,98570.22
2022-09-28T13:52:32.220Z,98580.94
2022-09-28T13:55:11.480Z,98582.03
2022-09-28T13:57:49.402Z,98583.09
2022-09-28T14:00:27.632Z,98566.31
2022-09-28T14:03:06.809Z,98588.22
2022-09-28T14:05:46.741Z,98565.16
2022-09-28T14:08:28.609Z,98581.97
2022-09-28T14:11:17.044Z,98591.16
2022-09-28T14:13:44.334Z,98598.41
2022-09-28T14:16:17.853Z,98598.50
2022-09-28T14:19:05.244Z,98568.00
2022-09-28T14:21:44.555Z,98618.09
2022-09-28T14:24:39.759Z,98606.28
2022-09-28T14:27:07.118Z,98602.81
2022-09-28T14:29:37.415Z,98611.06
2022-09-28T14:32:22.105Z,98604.41
2022-09-28T14:34:58.472Z,98635.13
2022-09-28T14:37:48.803Z,98581.16
2022-09-28T14:40:49.810Z,98605.94
2022-09-28T14:43:25.388Z,98599.16
2022-09-28T14:46:11.611Z,98624.41
2022-09-28T14:49:03.740Z,98627.06
2022-09-28T14:51:38.501Z,98631.81
2022-09-28T14:54:16.383Z,98640.28
2022-09-28T14:56:57.466Z,98624.78
2022-09-28T14:59:34.657Z,98649.09
2022-09-28T15:02:14.717Z,98628.84
2022-09-28T15:04:51.419Z,98621.22
2022-09-28T15:07:24.050Z,98645.53
2022-09-28T15:09:54.767Z,98656.75
2022-09-28T15:12:28.232Z,98651.03
2022-09-28T15:15:05.146Z,98675.47
2022-09-28T15:17:40.503Z,98654.59
2022-09-28T15:20:25.677Z,98633.22
2022-09-28T15:22:59.980Z,98669.59
2022-09-28T15:25:35.367Z,98657.91
2022-09-28T15:28:18.240Z,98672.16
2022-09-28T15:30:46.059Z,98688.44
2022-09-28T15:33:47.563Z,98690.59
2022-09-28T15:36:35.051Z,98684.63
2022-09-28T15:39:07.074Z,98700.50
2022-09-28T15:41:34.677Z,98695.94
2022-09-28T15:44:16.644Z,98704.28
2022-09-28T15:46:52.133Z,98678.16
2022-09-28T15:49:41.647Z,98701.69
2022-09-28T15:52:25.564Z,98691.13
2022-09-28T15:54:53.458Z,98709.41
2022-09-28T15:57:35.588Z,98704.19
2022-09-28T16:00:38.517Z,98673.16
2022-09-28T16:03:09.094Z,98702.41
2022-09-28T16:05:46.978Z,98691.44
2022-09-28T16:08:27.468Z,98723.28
2022-09-28T16:11:07.418Z,98690.06
2022-09-28T16:13:35.244Z,98688.66
2022-09-28T16:16:05.418Z,98685.91
2022-09-28T16:18:37.065Z,98674.78
2022-09-28T16:21:24.639Z,98704.41
2022-09-28T16:23:55.943Z,98663.69
2022-09-28T16:26:43.289Z,98682.91
2022-09-28T16:29:41.436Z,98714.28
2022-09-28T16:32:26.868Z,98705.19
2022-09-28T16:35:28.629Z,98701.72
2022-09-28T16:38:01.018Z,98713.75
2022-09-28T16:40:31.231Z,98702.78
2022-09-28T16:43:03.095Z,98715.53
2022-09-28T16:45:30.467Z,98709.94
2022-09-28T16:47:58.197Z,98701.09
2022-09-28T16:50:28.210Z,98691.34
2022-09-28T16:53:30.184Z,98680.25
2022-09-28T16:55:58.955Z,98711.50
2022-09-28T16:58:26.395Z,98720.59
2022-09-28T17:00:54.916Z,98699.59
2022-09-28T17:03:23.761Z,98730.41
2022-09-28T17:05:52.902Z,98710.69
2022-09-28T17:08:22.540Z,98714.47
2022-09-28T17:11:16.972Z,98703.63
2022-09-28T17:13:46.192Z,98739.81
2022-09-28T17:16:32.696Z,98709.63
2022-09-28T17:19:56.996Z,98734.22
2022-09-28T17:23:59.504Z,98738.97
2022-09-28T17:26:31.725Z,98716.75
2022-09-28T17:28:59.777Z,98719.63
2022-09-28T17:31:27.357Z,98718.38
2022-09-28T17:33:54.913Z,98716.03
2022-09-28T17:36:23.604Z,98736.53
2022-09-28T17:39:18.900Z,98739.66
2022-09-28T17:41:46.228Z,98741.06
2022-09-28T17:44:16.514Z,98730.69
2022-09-28T17:47:06.980Z,98713.41
2022-09-28T17:49:39.175Z,98708.78
2022-09-28T17:52:16.476Z,98725.81
2022-09-28T17:55:00.091Z,98724.25
2022-09-28T17:57:47.991Z,98744.56
2022-09-28T18:00:29.727Z,98732.53
2022-09-28T18:03:00.206Z,98723.09
2022-09-28T18:05:32.892Z,98741.56
2022-09-28T18:08:04.865Z,98748.97
2022-09-28T18:10:36.360Z,98747.06
2022-09-28T18:13:14.982Z,98734.59
2022-09-28T18:15:53.910Z,98731.88
2022-09-28T18:18:36.779Z,98728.56
2022-09-28T18:21:15.624Z,98724.72
2022-09-28T18:23:59.434Z,98712.44
2022-09-28T18:26:34.010Z,98737.22
2022-09-28T18:29:12.289Z,98734.81
2022-09-28T18:31:40.857Z,98707.81
2022-09-28T18:34:13.807Z,98710.06
2022-09-28T18:36:41.545Z,98698.22
2022-09-28T18:39:09.316Z,98699.44
2022-09-28T18:41:38.993Z,98732.09
2022-09-28T18:44:11.265Z,98717.19
2022-09-28T18:46:53.795Z,98690.63
2022-09-28T18:49:26.208Z,98705.72
2022-09-28T18:51:53.665Z,98701.66
2022-09-28T18:54:27.686Z,98708.56
2022-09-28T18:57:00.036Z,98702.00
2022-09-28T18:59:29.552Z,98734.13
2022-09-28T19:01:57.158Z,98717.41
2022-09-28T19:04:30.750Z,98748.28
2022-09-28T19:07:00.792Z,98741.97
2022-09-28T19:09:32.579Z,98720.00
2022-09-28T19:12:02.578Z,98719.75
2022-09-28T19:14:32.589Z,98705.88
2022-09-28T19:17:00.020Z,98722.94
2022-09-28T19:19:29.607Z,98738.72
2022-09-28T19:21:57.329Z,98727.97
2022-09-28T19:24:25.471Z,98712.09
2022-09-28T19:26:53.861Z,98749.16
2022-09-28T19:29:23.614Z,98739.91
2022-09-28T19:31:57.011Z,98725.81
2022-09-28T19:34:27.244Z,98716.34
2022-09-28T19:37:06.918Z,98724.47
2022-09-28T19:39:36.908Z,98731.22
2022-09-28T19:43:14.573Z,98722.25
2022-09-28T19:45:15.250Z,98740.13
2022-09-28T19:47:42.665Z,98738.97
2022-09-28T19:50:10.628Z,98765.50
2022-09-28T19:52:37.905Z,98754.38
2022-09-28T19:55:05.549Z,98768.00
2022-09-28T19:57:33.109Z,98755.69
2022-09-28T20:00:04.148Z,98753.69
2022-09-28T20:02:35.334Z,98740.41
2022-09-28T20:05:03.377Z,98780.66
2022-09-28T20:07:33.269Z,98742.91
2022-09-28T20:10:04.340Z,98772.78
2022-09-28T20:12:31.916Z,98756.56
2022-09-28T20:14:59.464Z,98801.06
2022-09-28T20:17:27.798Z,98759.63
2022-09-28T20:19:56.332Z,98744.38
2022-09-28T20:22:24.255Z,98760.63
2022-09-28T20:24:51.549Z,98767.13
2022-09-28T20:27:20.358Z,98798.84
2022-09-28T20:29:49.790Z,98793.19
2022-09-28T20:32:17.412Z,98771.16
2022-09-28T20:34:44.447Z,98780.00
2022-09-28T20:37:13.849Z,98793.69
2022-09-28T20:39:44.795Z,98783.34
2022-09-28T20:42:14.489Z,98817.72
2022-09-28T20:44:41.876Z,98816.22
2022-09-28T20:47:09.539Z,98826.03
2022-09-28T20:49:37.655Z,98810.25
2022-09-28T20:52:07.143Z,98816.47
2022-09-28T20:54:34.446Z,98824.06
2022-09-28T20:57:01.611Z,98829.00
2022-09-28T20:59:29.411Z,98813.56
2022-09-28T21:01:56.589Z,98797.72
2022-09-28T21:04:24.426Z,98815.50
2022-09-28T21:06:52.463Z,98841.53
2022-09-28T21:09:19.815Z,98810.09
2022-09-28T21:11:48.287Z,98815.41
2022-09-28T21:14:15.579Z,98829.66
2022-09-28T21:16:42.900Z,98820.44
2022-09-28T21:19:10.215Z,98812.72
2022-09-28T21:21:37.398Z,98816.38
2022-09-28T21:24:04.859Z,98801.59
2022-09-28T21:26:32.846Z,98825.88
2022-09-28T21:29:02.604Z,98827.53
2022-09-28T21:31:41.054Z,98816.69
2022-09-28T21:34:13.783Z,98833.44
2022-09-28T21:36:43.701Z,98853.84
2022-09-28T21:39:11.012Z,98842.66
2022-09-28T21:41:38.186Z,98826.53
2022-09-28T21:44:06.158Z,98810.88
2022-09-28T21:46:34.553Z,98820.50
2022-09-28T21:49:06.709Z,98821.50
2022-09-28T21:51:36.571Z,98851.25
2022-09-28T21:54:04.327Z,98839.25
2022-09-28T21:56:31.807Z,98827.09
2022-09-28T21:58:59.446Z,98848.63
2022-09-28T22:01:27.001Z,98823.84
2022-09-28T22:03:56.768Z,98812.34
2022-09-28T22:06:28.150Z,98832.03
2022-09-28T22:08:56.765Z,98823.66
2022-09-28T22:11:27.526Z,98836.41
2022-09-28T22:13:57.381Z,98847.75
2022-09-28T22:16:30.516Z,98839.34
2022-09-28T22:18:59.453Z,98857.59
2022-09-28T22:21:30.102Z,98828.69
2022-09-28T22:24:02.841Z,98845.63
2022-09-28T22:26:32.689Z,98854.84
2022-09-28T22:29:02.477Z,98847.09
2022-09-28T22:31:32.938Z,98814.25
2022-09-28T22:34:00.914Z,98864.13
2022-09-28T22:36:28.435Z,98838.50
2022-09-28T22:38:56.433Z,98834.84
2022-09-28T22:41:25.119Z,98819.81
2022-09-28T22:43:53.961Z,98830.28
2022-09-28T22:46:25.643Z,98859.75
2022-09-28T22:48:58.230Z,98889.19
2022-09-28T22:51:28.306Z,98857.28
2022-09-28T22:53:56.808Z,98861.84
2022-09-28T22:56:24.811Z,98862.16
2022-09-28T22:58:52.115Z,98874.75
2022-09-28T23:01:29.879Z,98845.13
2022-09-28T23:03:58.083Z,98873.69
2022-09-28T23:06:26.767Z,98857.78
2022-09-28T23:08:54.116Z,98871.91
2022-09-28T23:11:21.896Z,98872.13
2022-09-28T23:13:50.678Z,98853.00
2022-09-28T23:16:18.752Z,98844.53
2022-09-28T23:18:46.341Z,98869.63
2022-09-28T23:21:18.415Z,98876.72
2022-09-28T23:23:50.834Z,98840.56
2022-09-28T23:26:24.345Z,98878.03
2022-09-28T23:28:52.835Z,98857.78
2022-09-28T23:31:33.021Z,98884.28
2022-09-28T23:34:04.178Z,98869.94
2022-09-28T23:36:32.626Z,98842.28
2022-09-28T23:39:03.451Z,98885.72
2022-09-28T23:41:31.872Z,98864.25
2022-09-28T23:43:58.996Z,98882.19
2022-09-28T23:46:26.224Z,98875.78
2022-09-28T23:48:53.420Z,98853.69
2022-09-28T23:51:24.516Z,98878.94
2022-09-28T23:53:52.190Z,98874.16
2022-09-28T23:56:19.333Z,98877.00
2022-09-28T23:58:46.440Z,98868.31
